Time;durP1;ratioP1;P1;durP2;ratioP2;P2;SDS_P1;SDS_P2;PMS_P1;PMS_P2;Temp;Humidity;BMP_temperature;BMP_pressure;BME280_temperature;BME280_humidity;BME280_pressure;Samples;Min_cycle;Max_cycle;Signal;HPM_P1;HPM_P2
2023/09/24 00:00:14;;;;;;;;;;;;;;;;;;2198717;59;3458;-22
2023/09/24 00:02:45;;;;;;;;;;;;;;;;;;2197579;66;3223;-21
2023/09/24 00:05:16;;;;;;;;;;;;;;;;;;2197770;66;2433;-22
2023/09/24 00:07:46;;;;;;;;;;;;;;;;;;2198017;59;2783;-22
2023/09/24 00:10:17;;;;;;;;;;;;;;;;;;2198900;66;2834;-22
2023/09/24 00:12:47;;;;;;;;;;;;;;;;;;2198361;59;2791;-22
2023/09/24 00:15:17;;;;;;;;;;;;;;;;;;2198973;59;3655;-21
2023/09/24 00:17:47;;;;;;;;;;;;;;;;;;2197936;59;3769;-22
2023/09/24 00:20:19;;;;;;;;;;;;;;;;;;2198977;65;1645;-22
2023/09/24 00:22:49;;;;;;;;;;;;;;;;;;2194400;59;2409;-22
2023/09/24 00:25:21;;;;;;;;;;;;;;;;;;2199206;66;2918;-22
2023/09/24 00:27:51;;;;;;;;;;;;;;;;;;2197624;59;2404;-22
2023/09/24 00:30:22;;;;;;;;;;;;;;;;;;2198621;66;1783;-21
2023/09/24 00:32:57;;;;;;;;;;;;;;;;;;2197848;66;3562;-22
2023/09/24 00:35:27;;;;;;;;;;;;;;;;;;2198919;66;2457;-22
2023/09/24 00:37:58;;;;;;;;;;;;;;;;;;2198299;59;1910;-22
2023/09/24 00:40:28;;;;;;;;;;;;;;;;;;2198816;66;3538;-22
2023/09/24 00:42:58;;;;;;;;;;;;;;;;;;2197730;59;2383;-22
2023/09/24 00:45:28;;;;;;;;;;;;;;;;;;2198452;59;3311;-22
2023/09/24 00:47:59;;;;;;;;;;;;;;;;;;2197595;66;2377;-22
2023/09/24 00:50:41;;;;;;;;;;;;;;;;;;2198542;59;3905;-21
2023/09/24 00:53:11;;;;;;;;;;;;;;;;;;2194352;59;3508;-22
2023/09/24 00:55:41;;;;;;;;;;;;;;;;;;2199049;66;2605;-22
2023/09/24 00:58:12;;;;;;;;;;;;;;;;;;2197847;66;1906;-22
2023/09/24 01:00:45;;;;;;;;;;;;;;;;;;2198964;59;3682;-22
2023/09/24 01:03:16;;;;;;;;;;;;;;;;;;2198979;66;2376;-21
2023/09/24 01:05:49;;;;;;;;;;;;;;;;;;2197114;59;3966;-22
2023/09/24 01:08:21;;;;;;;;;;;;;;;;;;2197833;66;3344;-21
2023/09/24 01:10:51;;;;;;;;;;;;;;;;;;2197615;66;2458;-22
2023/09/24 01:13:23;;;;;;;;;;;;;;;;;;2198320;59;2490;-22
2023/09/24 01:15:53;;;;;;;;;;;;;;;;;;2197184;59;2960;-22
2023/09/24 01:18:24;;;;;;;;;;;;;;;;;;2196040;59;2288;-21
2023/09/24 01:20:54;;;;;;;;;;;;;;;;;;2197567;59;2951;-22
2023/09/24 01:23:24;;;;;;;;;;;;;;;;;;2198176;66;1784;-21
2023/09/24 01:25:58;;;;;;;;;;;;;;;;;;2197993;66;1882;-21
2023/09/24 01:28:28;;;;;;;;;;;;;;;;;;2198280;59;3710;-21
2023/09/24 01:30:58;;;;;;;;;;;;;;;;;;2197759;59;3813;-21
2023/09/24 01:33:31;;;;;;;;;;;;;;;;;;2198802;66;1703;-21
2023/09/24 01:36:02;;;;;;;;;;;;;;;;;;2197545;66;2988;-21
2023/09/24 01:38:32;;;;;;;;;;;;;;;;;;2198349;59;2342;-21
2023/09/24 01:41:05;;;;;;;;;;;;;;;;;;2197329;59;2172;-21
2023/09/24 01:43:36;;;;;;;;;;;;;;;;;;2197822;66;3865;-21
2023/09/24 01:46:07;;;;;;;;;;;;;;;;;;2195581;59;3148;-21
2023/09/24 01:48:37;;;;;;;;;;;;;;;;;;2198415;66;2007;-21
2023/09/24 01:51:08;;;;;;;;;;;;;;;;;;2197860;59;2158;-21
2023/09/24 01:53:39;;;;;;;;;;;;;;;;;;2197645;66;2420;-21
2023/09/24 01:56:09;;;;;;;;;;;;;;;;;;2197623;59;2231;-21
2023/09/24 01:58:42;;;;;;;;;;;;;;;;;;2197918;66;1889;-21
2023/09/24 02:01:13;;;;;;;;;;;;;;;;;;2199624;66;2920;-21
2023/09/24 02:03:46;;;;;;;;;;;;;;;;;;2198536;66;3807;-21
2023/09/24 02:06:16;;;;;;;;;;;;;;;;;;2196155;59;3915;-21
2023/09/24 02:08:46;;;;;;;;;;;;;;;;;;2198348;62;2520;-20
2023/09/24 02:11:18;;;;;;;;;;;;;;;;;;2201959;59;4318;-21
2023/09/24 02:13:48;;;;;;;;;;;;;;;;;;2203659;66;2689;-21
2023/09/24 02:16:18;;;;;;;;;;;;;;;;;;2201032;66;1830;-21
2023/09/24 02:18:49;;;;;;;;;;;;;;;;;;2199008;59;2530;-21
2023/09/24 02:21:19;;;;;;;;;;;;;;;;;;2199240;59;2402;-21
2023/09/24 02:23:54;;;;;;;;;;;;;;;;;;2198963;66;3386;-21
2023/09/24 02:26:24;;;;;;;;;;;;;;;;;;2200174;66;2675;-21
2023/09/24 02:28:54;;;;;;;;;;;;;;;;;;2197842;59;3150;-21
2023/09/24 02:31:26;;;;;;;;;;;;;;;;;;2199286;66;2123;-21
2023/09/24 02:33:56;;;;;;;;;;;;;;;;;;2198347;66;2563;-21
2023/09/24 02:36:26;;;;;;;;;;;;;;;;;;2199123;64;2592;-21
2023/09/24 02:38:57;;;;;;;;;;;;;;;;;;2198562;66;4488;-21
2023/09/24 02:41:31;;;;;;;;;;;;;;;;;;2199638;59;2364;-21
2023/09/24 02:44:02;;;;;;;;;;;;;;;;;;2198056;59;2799;-21
2023/09/24 02:46:35;;;;;;;;;;;;;;;;;;2199992;59;2479;-21
2023/09/24 02:49:06;;;;;;;;;;;;;;;;;;2196247;66;2658;-21
2023/09/24 02:51:36;;;;;;;;;;;;;;;;;;2199116;59;3351;-21
2023/09/24 02:54:08;;;;;;;;;;;;;;;;;;2198715;66;3543;-21
2023/09/24 02:56:38;;;;;;;;;;;;;;;;;;2199617;66;3964;-21
2023/09/24 02:59:11;;;;;;;;;;;;;;;;;;2198640;66;3739;-21
2023/09/24 03:01:48;;;;;;;;;;;;;;;;;;2200117;66;1871;-21
2023/09/24 03:04:18;;;;;;;;;;;;;;;;;;2198451;66;2505;-21
2023/09/24 03:06:48;;;;;;;;;;;;;;;;;;2199114;59;2906;-21
2023/09/24 03:09:19;;;;;;;;;;;;;;;;;;2194407;59;2444;-21
2023/09/24 03:11:49;;;;;;;;;;;;;;;;;;2198612;59;2693;-21
2023/09/24 03:14:20;;;;;;;;;;;;;;;;;;2198192;66;4509;-22
2023/09/24 03:16:51;;;;;;;;;;;;;;;;;;2198579;66;2605;-21
2023/09/24 03:19:21;;;;;;;;;;;;;;;;;;2197840;59;3321;-21
2023/09/24 03:21:51;;;;;;;;;;;;;;;;;;2198854;59;2715;-21
2023/09/24 03:24:21;;;;;;;;;;;;;;;;;;2199142;66;3027;-22
2023/09/24 03:26:51;;;;;;;;;;;;;;;;;;2199026;59;2477;-22
2023/09/24 03:29:22;;;;;;;;;;;;;;;;;;2198911;66;1936;-21
2023/09/24 03:31:52;;;;;;;;;;;;;;;;;;2199067;59;1954;-21
2023/09/24 03:34:22;;;;;;;;;;;;;;;;;;2198422;63;2375;-22
2023/09/24 03:36:52;;;;;;;;;;;;;;;;;;2196646;66;3415;-21
2023/09/24 03:39:25;;;;;;;;;;;;;;;;;;2198074;59;4903;-22
2023/09/24 03:41:55;;;;;;;;;;;;;;;;;;2197709;66;4187;-21
2023/09/24 03:44:26;;;;;;;;;;;;;;;;;;2198626;59;2740;-21
2023/09/24 03:46:56;;;;;;;;;;;;;;;;;;2210304;66;3140;-22
2023/09/24 03:49:26;;;;;;;;;;;;;;;;;;2200208;66;1954;-22
2023/09/24 03:51:56;;;;;;;;;;;;;;;;;;2198007;59;2730;-22
2023/09/24 03:54:27;;;;;;;;;;;;;;;;;;2198765;66;2331;-21
2023/09/24 03:56:57;;;;;;;;;;;;;;;;;;2197818;66;2557;-21
2023/09/24 03:59:28;;;;;;;;;;;;;;;;;;2199018;66;2350;-21
2023/09/24 04:01:58;;;;;;;;;;;;;;;;;;2197190;66;2668;-21
2023/09/24 04:04:28;;;;;;;;;;;;;;;;;;2199523;66;2074;-21
2023/09/24 04:06:58;;;;;;;;;;;;;;;;;;2198609;59;3148;-21
2023/09/24 04:09:32;;;;;;;;;;;;;;;;;;2197469;59;4834;-21
2023/09/24 04:12:04;;;;;;;;;;;;;;;;;;2198131;59;2534;-21
2023/09/24 04:14:35;;;;;;;;;;;;;;;;;;2198611;59;2459;-22
2023/09/24 04:17:06;;;;;;;;;;;;;;;;;;2197889;61;3650;-21
2023/09/24 04:19:36;;;;;;;;;;;;;;;;;;2199539;59;2791;-21
2023/09/24 04:22:07;;;;;;;;;;;;;;;;;;2198098;59;3645;-22
2023/09/24 04:24:37;;;;;;;;;;;;;;;;;;2199358;66;1861;-21
2023/09/24 04:27:09;;;;;;;;;;;;;;;;;;2197977;59;1969;-21
2023/09/24 04:29:39;;;;;;;;;;;;;;;;;;2198997;66;2109;-21
2023/09/24 04:32:11;;;;;;;;;;;;;;;;;;2197780;59;2531;-21
2023/09/24 04:34:42;;;;;;;;;;;;;;;;;;2198883;66;2396;-21
2023/09/24 04:37:14;;;;;;;;;;;;;;;;;;2198304;66;2666;-21
2023/09/24 04:39:46;;;;;;;;;;;;;;;;;;2196726;59;2529;-21
2023/09/24 04:42:16;;;;;;;;;;;;;;;;;;2196967;59;2326;-21
2023/09/24 04:44:47;;;;;;;;;;;;;;;;;;2198539;66;2175;-21
2023/09/24 04:47:17;;;;;;;;;;;;;;;;;;2197733;66;2246;-20
2023/09/24 04:49:47;;;;;;;;;;;;;;;;;;2198457;59;1987;-21
2023/09/24 04:52:18;;;;;;;;;;;;;;;;;;2197901;59;2529;-21
2023/09/24 04:54:48;;;;;;;;;;;;;;;;;;2195471;66;1950;-21
2023/09/24 04:57:18;;;;;;;;;;;;;;;;;;2197953;66;2655;-22
2023/09/24 04:59:53;;;;;;;;;;;;;;;;;;2198461;59;2206;-21
2023/09/24 05:02:23;;;;;;;;;;;;;;;;;;2197221;66;1860;-21
2023/09/24 05:04:56;;;;;;;;;;;;;;;;;;2198510;66;1845;-21
2023/09/24 05:07:26;;;;;;;;;;;;;;;;;;2198754;66;3810;-21
2023/09/24 05:09:57;;;;;;;;;;;;;;;;;;2197806;66;2513;-21
2023/09/24 05:12:27;;;;;;;;;;;;;;;;;;2209321;59;2299;-21
2023/09/24 05:14:57;;;;;;;;;;;;;;;;;;2195587;59;2741;-22
2023/09/24 05:17:27;;;;;;;;;;;;;;;;;;2198424;59;2494;-21
2023/09/24 05:19:58;;;;;;;;;;;;;;;;;;2197963;59;2503;-22
2023/09/24 05:22:28;;;;;;;;;;;;;;;;;;2197928;59;1904;-21
2023/09/24 05:24:59;;;;;;;;;;;;;;;;;;2197753;59;2560;-22
2023/09/24 05:27:30;;;;;;;;;;;;;;;;;;2198038;59;1748;-21
2023/09/24 05:30:01;;;;;;;;;;;;;;;;;;2196808;66;3457;-21
2023/09/24 05:32:32;;;;;;;;;;;;;;;;;;2198697;59;4257;-21
2023/09/24 05:35:02;;;;;;;;;;;;;;;;;;2197494;66;3770;-22
2023/09/24 05:37:32;;;;;;;;;;;;;;;;;;2193439;67;1838;-21
2023/09/24 05:40:06;;;;;;;;;;;;;;;;;;2198150;59;2478;-21
2023/09/24 05:42:36;;;;;;;;;;;;;;;;;;2195590;59;3292;-21
2023/09/24 05:45:07;;;;;;;;;;;;;;;;;;2197643;59;2456;-21
2023/09/24 05:47:37;;;;;;;;;;;;;;;;;;2199284;66;4800;-21
2023/09/24 05:50:08;;;;;;;;;;;;;;;;;;2197538;59;2492;-21
2023/09/24 05:52:38;;;;;;;;;;;;;;;;;;2199339;59;1876;-21
2023/09/24 05:55:08;;;;;;;;;;;;;;;;;;2198204;66;1914;-22
2023/09/24 05:57:38;;;;;;;;;;;;;;;;;;2196114;66;3960;-22
2023/09/24 06:00:09;;;;;;;;;;;;;;;;;;2198464;66;1873;-21
2023/09/24 06:02:42;;;;;;;;;;;;;;;;;;2199123;66;3303;-22
2023/09/24 06:05:13;;;;;;;;;;;;;;;;;;2198426;66;2112;-22
2023/09/24 06:07:43;;;;;;;;;;;;;;;;;;2199266;66;2243;-21
2023/09/24 06:10:13;;;;;;;;;;;;;;;;;;2197670;66;2623;-22
2023/09/24 06:12:43;;;;;;;;;;;;;;;;;;2198702;59;2617;-21
2023/09/24 06:15:14;;;;;;;;;;;;;;;;;;2197854;59;2864;-22
2023/09/24 06:17:44;;;;;;;;;;;;;;;;;;2199448;59;3451;-21
2023/09/24 06:20:16;;;;;;;;;;;;;;;;;;2198769;59;2683;-22
2023/09/24 06:22:52;;;;;;;;;;;;;;;;;;2198309;59;2304;-21
2023/09/24 06:25:23;;;;;;;;;;;;;;;;;;2198268;66;2193;-21
2023/09/24 06:27:54;;;;;;;;;;;;;;;;;;2199028;59;1826;-21
2023/09/24 06:30:24;;;;;;;;;;;;;;;;;;2197621;59;3047;-21
2023/09/24 06:32:54;;;;;;;;;;;;;;;;;;2198743;66;2129;-21
2023/09/24 06:35:24;;;;;;;;;;;;;;;;;;2199652;66;5009;-21
2023/09/24 06:37:55;;;;;;;;;;;;;;;;;;2202488;59;4011;-21
2023/09/24 06:40:25;;;;;;;;;;;;;;;;;;2201208;66;2635;-22
2023/09/24 06:42:55;;;;;;;;;;;;;;;;;;2198623;59;1993;-22
2023/09/24 06:45:26;;;;;;;;;;;;;;;;;;2199349;66;2412;-22
2023/09/24 06:47:57;;;;;;;;;;;;;;;;;;2202558;66;3358;-22
2023/09/24 06:50:27;;;;;;;;;;;;;;;;;;2201448;59;2481;-22
2023/09/24 06:52:57;;;;;;;;;;;;;;;;;;2198914;59;3033;-22
2023/09/24 06:55:27;;;;;;;;;;;;;;;;;;2197588;66;2602;-22
2023/09/24 06:57:57;;;;;;;;;;;;;;;;;;2198834;66;3900;-22
2023/09/24 07:00:28;;;;;;;;;;;;;;;;;;2198037;66;4689;-22
2023/09/24 07:02:58;;;;;;;;;;;;;;;;;;2198910;66;1889;-22
2023/09/24 07:05:29;;;;;;;;;;;;;;;;;;2197780;59;3828;-22
2023/09/24 07:07:59;;;;;;;;;;;;;;;;;;2198112;66;3665;-22
2023/09/24 07:10:30;;;;;;;;;;;;;;;;;;2197657;64;2054;-22
2023/09/24 07:13:00;;;;;;;;;;;;;;;;;;2198357;59;2961;-22
2023/09/24 07:15:31;;;;;;;;;;;;;;;;;;2197461;59;3566;-22
2023/09/24 07:18:02;;;;;;;;;;;;;;;;;;2195334;59;3745;-22
2023/09/24 07:20:33;;;;;;;;;;;;;;;;;;2198164;59;3643;-22
2023/09/24 07:23:03;;;;;;;;;;;;;;;;;;2216374;53;4035;-24
2023/09/24 07:25:37;;;;;;;;;;;;;;;;;;2215861;66;2600;-24
2023/09/24 07:28:07;;;;;;;;;;;;;;;;;;2217885;58;2703;-23
2023/09/24 07:30:37;;;;;;;;;;;;;;;;;;2218324;58;4161;-24
2023/09/24 07:33:08;;;;;;;;;;;;;;;;;;2217368;59;2439;-24
2023/09/24 07:35:39;;;;;;;;;;;;;;;;;;2217590;66;3543;-24
2023/09/24 07:38:09;;;;;;;;;;;;;;;;;;2217199;58;2303;-24
2023/09/24 07:40:39;;;;;;;;;;;;;;;;;;2214612;59;3320;-24
2023/09/24 07:43:10;;;;;;;;;;;;;;;;;;2218173;58;4134;-23
2023/09/24 07:45:42;;;;;;;;;;;;;;;;;;2214798;58;4031;-24
2023/09/24 07:48:14;;;;;;;;;;;;;;;;;;2216407;59;3512;-23
2023/09/24 07:50:54;;;;;;;;;;;;;;;;;;2214455;59;2744;-23
2023/09/24 07:53:24;;;;;;;;;;;;;;;;;;2216563;58;2704;-23
2023/09/24 07:55:55;;;;;;;;;;;;;;;;;;2217709;66;3981;-24
2023/09/24 07:58:26;;;;;;;;;;;;;;;;;;2214493;59;3190;-24
2023/09/24 08:01:00;;;;;;;;;;;;;;;;;;2218160;58;2568;-24
2023/09/24 08:03:31;;;;;;;;;;;;;;;;;;2216974;58;1857;-24
2023/09/24 08:06:02;;;;;;;;;;;;;;;;;;2218150;58;3665;-24
2023/09/24 08:08:34;;;;;;;;;;;;;;;;;;2214143;66;3883;-24
2023/09/24 08:11:04;;;;;;;;;;;;;;;;;;2212721;66;1764;-24
2023/09/24 08:13:34;;;;;;;;;;;;;;;;;;2210121;58;2724;-24
2023/09/24 08:16:05;;;;;;;;;;;;;;;;;;2218126;58;2237;-24
2023/09/24 08:18:35;;;;;;;;;;;;;;;;;;2217305;58;2110;-24
2023/09/24 08:21:06;;;;;;;;;;;;;;;;;;2214832;58;1795;-24
2023/09/24 08:23:36;;;;;;;;;;;;;;;;;;2213713;58;3769;-24
2023/09/24 08:26:07;;;;;;;;;;;;;;;;;;2218899;66;1928;-24
2023/09/24 08:28:37;;;;;;;;;;;;;;;;;;2217089;58;2302;-24
2023/09/24 08:31:08;;;;;;;;;;;;;;;;;;2218020;58;1856;-24
2023/09/24 08:33:38;;;;;;;;;;;;;;;;;;2213440;63;4083;-24
2023/09/24 08:36:09;;;;;;;;;;;;;;;;;;2217213;59;4388;-24
2023/09/24 08:38:40;;;;;;;;;;;;;;;;;;2216895;58;2425;-25
2023/09/24 08:41:16;;;;;;;;;;;;;;;;;;2217077;58;2525;-24
2023/09/24 08:43:46;;;;;;;;;;;;;;;;;;2217941;66;1717;-24
2023/09/24 08:46:18;;;;;;;;;;;;;;;;;;2216721;66;2691;-24
2023/09/24 08:48:48;;;;;;;;;;;;;;;;;;2217290;66;2732;-24
2023/09/24 08:51:19;;;;;;;;;;;;;;;;;;2217736;58;4200;-24
2023/09/24 08:53:50;;;;;;;;;;;;;;;;;;2214459;59;1770;-24
2023/09/24 08:56:23;;;;;;;;;;;;;;;;;;2216505;58;3126;-24
2023/09/24 08:58:56;;;;;;;;;;;;;;;;;;2217612;66;3336;-24
2023/09/24 09:01:26;;;;;;;;;;;;;;;;;;2216061;59;2674;-25
2023/09/24 09:03:57;;;;;;;;;;;;;;;;;;2217831;66;1617;-24
2023/09/24 09:06:33;;;;;;;;;;;;;;;;;;2216538;58;2427;-25
2023/09/24 09:09:06;;;;;;;;;;;;;;;;;;2218707;66;2176;-24
2023/09/24 09:11:40;;;;;;;;;;;;;;;;;;2217774;58;4026;-24
2023/09/24 09:14:11;;;;;;;;;;;;;;;;;;2212418;59;2780;-25
2023/09/24 09:16:56;;;;;;;;;;;;;;;;;;2213545;59;2903;-25
2023/09/24 09:19:28;;;;;;;;;;;;;;;;;;2218229;58;3837;-25
2023/09/24 09:22:15;;;;;;;;;;;;;;;;;;2219775;59;2026;-25
2023/09/24 09:24:46;;;;;;;;;;;;;;;;;;2219193;66;1757;-25
2023/09/24 09:27:16;;;;;;;;;;;;;;;;;;2217526;58;3591;-25
2023/09/24 09:29:47;;;;;;;;;;;;;;;;;;2216416;59;3046;-25
2023/09/24 09:32:17;;;;;;;;;;;;;;;;;;2217616;59;4166;-25
2023/09/24 09:34:51;;;;;;;;;;;;;;;;;;2218293;66;3097;-25
2023/09/24 09:37:21;;;;;;;;;;;;;;;;;;2214108;58;3838;-25
2023/09/24 09:39:53;;;;;;;;;;;;;;;;;;2216327;58;3957;-25
2023/09/24 09:42:25;;;;;;;;;;;;;;;;;;2217969;58;2814;-25
2023/09/24 09:44:58;;;;;;;;;;;;;;;;;;2217298;58;2789;-25
2023/09/24 09:47:31;;;;;;;;;;;;;;;;;;2218453;66;2282;-25
2023/09/24 09:50:02;;;;;;;;;;;;;;;;;;2219714;58;2338;-25
2023/09/24 09:52:35;;;;;;;;;;;;;;;;;;2216375;58;2971;-25
2023/09/24 09:55:06;;;;;;;;;;;;;;;;;;2215592;66;2236;-25
2023/09/24 09:57:37;;;;;;;;;;;;;;;;;;2215375;58;3579;-29
2023/09/24 10:00:09;;;;;;;;;;;;;;;;;;2216422;66;1774;-25
2023/09/24 10:02:41;;;;;;;;;;;;;;;;;;2219063;59;4364;-25
2023/09/24 10:05:12;;;;;;;;;;;;;;;;;;2219281;66;4030;-25
2023/09/24 10:07:42;;;;;;;;;;;;;;;;;;2218370;58;2530;-25
2023/09/24 10:10:31;;;;;;;;;;;;;;;;;;2220091;66;2691;-25
2023/09/24 10:13:05;;;;;;;;;;;;;;;;;;2219881;58;2240;-34
2023/09/24 10:15:35;;;;;;;;;;;;;;;;;;2217795;58;2953;-25
2023/09/24 10:18:09;;;;;;;;;;;;;;;;;;2217029;58;1890;-25
2023/09/24 10:20:48;;;;;;;;;;;;;;;;;;2219016;58;2645;-25
2023/09/24 10:23:31;;;;;;;;;;;;;;;;;;2215080;58;1926;-25
2023/09/24 10:26:04;;;;;;;;;;;;;;;;;;2221395;58;2762;-25
2023/09/24 10:28:47;;;;;;;;;;;;;;;;;;2218751;58;2392;-25
2023/09/24 10:31:20;;;;;;;;;;;;;;;;;;2221226;58;3188;-25
2023/09/24 10:33:51;;;;;;;;;;;;;;;;;;2221230;66;3989;-24
2023/09/24 10:36:28;;;;;;;;;;;;;;;;;;2221465;58;3355;-25
2023/09/24 10:39:03;;;;;;;;;;;;;;;;;;2221234;58;3321;-25
2023/09/24 10:41:34;;;;;;;;;;;;;;;;;;2215231;58;2660;-24
2023/09/24 10:44:23;;;;;;;;;;;;;;;;;;2219280;58;3529;-24
2023/09/24 10:46:53;;;;;;;;;;;;;;;;;;2219860;59;2656;-23
2023/09/24 10:49:27;;;;;;;;;;;;;;;;;;2220057;58;2256;-24
2023/09/24 10:52:00;;;;;;;;;;;;;;;;;;2219521;58;2558;-24
2023/09/24 10:54:31;;;;;;;;;;;;;;;;;;2218565;58;3118;-24
2023/09/24 10:57:01;;;;;;;;;;;;;;;;;;2216440;66;2494;-24
2023/09/24 10:59:33;;;;;;;;;;;;;;;;;;2219243;59;3092;-24
2023/09/24 11:02:16;;;;;;;;;;;;;;;;;;2220133;59;2681;-24
2023/09/24 11:04:47;;;;;;;;;;;;;;;;;;2218590;66;3205;-24
2023/09/24 11:07:17;;;;;;;;;;;;;;;;;;2220307;58;3560;-24
2023/09/24 11:09:48;;;;;;;;;;;;;;;;;;2218924;58;3551;-24
2023/09/24 11:12:18;;;;;;;;;;;;;;;;;;2220094;58;2846;-24
2023/09/24 11:14:53;;;;;;;;;;;;;;;;;;2220561;58;2873;-24
2023/09/24 11:17:24;;;;;;;;;;;;;;;;;;2219220;58;3433;-24
2023/09/24 11:19:55;;;;;;;;;;;;;;;;;;2220080;58;2740;-24
2023/09/24 11:22:26;;;;;;;;;;;;;;;;;;2218079;66;2748;-24
2023/09/24 11:25:05;;;;;;;;;;;;;;;;;;2217361;58;1773;-24
2023/09/24 11:27:44;;;;;;;;;;;;;;;;;;2218130;58;3569;-24
2023/09/24 11:30:15;;;;;;;;;;;;;;;;;;2220085;66;1945;-24
2023/09/24 11:32:46;;;;;;;;;;;;;;;;;;2218590;66;2048;-24
2023/09/24 11:35:21;;;;;;;;;;;;;;;;;;2217671;58;3936;-24
2023/09/24 11:37:53;;;;;;;;;;;;;;;;;;2219558;58;2659;-24
2023/09/24 11:40:23;;;;;;;;;;;;;;;;;;2217577;66;3339;-24
2023/09/24 11:42:55;;;;;;;;;;;;;;;;;;2216928;58;2811;-24
2023/09/24 11:45:39;;;;;;;;;;;;;;;;;;2211620;59;3086;-24
2023/09/24 11:48:13;;;;;;;;;;;;;;;;;;2217619;58;2395;-24
2023/09/24 11:50:51;;;;;;;;;;;;;;;;;;2217520;58;2517;-24
2023/09/24 11:53:22;;;;;;;;;;;;;;;;;;2216837;66;2601;-24
2023/09/24 11:55:57;;;;;;;;;;;;;;;;;;2214847;66;2326;-24
2023/09/24 11:58:27;;;;;;;;;;;;;;;;;;2214256;58;3752;-23
2023/09/24 12:00:58;;;;;;;;;;;;;;;;;;2217615;66;3096;-24
2023/09/24 12:03:28;;;;;;;;;;;;;;;;;;2216887;58;2741;-24
2023/09/24 12:06:01;;;;;;;;;;;;;;;;;;2218012;58;1970;-24
2023/09/24 12:08:31;;;;;;;;;;;;;;;;;;2218723;58;4276;-24
2023/09/24 12:11:02;;;;;;;;;;;;;;;;;;2220060;66;4497;-24
2023/09/24 12:13:32;;;;;;;;;;;;;;;;;;2217885;58;4512;-24
2023/09/24 12:16:03;;;;;;;;;;;;;;;;;;2218533;66;2759;-24
2023/09/24 12:18:34;;;;;;;;;;;;;;;;;;2218070;58;2750;-24
2023/09/24 12:21:04;;;;;;;;;;;;;;;;;;2219388;66;2548;-24
2023/09/24 12:23:35;;;;;;;;;;;;;;;;;;2218398;58;4103;-24
2023/09/24 12:26:05;;;;;;;;;;;;;;;;;;2219195;58;1885;-24
2023/09/24 12:28:36;;;;;;;;;;;;;;;;;;2218116;58;2840;-26
2023/09/24 12:31:07;;;;;;;;;;;;;;;;;;2222466;58;1843;-26
2023/09/24 12:33:38;;;;;;;;;;;;;;;;;;2220549;58;2665;-24
2023/09/24 12:36:08;;;;;;;;;;;;;;;;;;2219399;58;1904;-24
2023/09/24 12:38:38;;;;;;;;;;;;;;;;;;2216142;58;2643;-24
2023/09/24 12:41:09;;;;;;;;;;;;;;;;;;2217828;58;2450;-24
2023/09/24 12:43:39;;;;;;;;;;;;;;;;;;2216676;58;3764;-24
2023/09/24 12:46:10;;;;;;;;;;;;;;;;;;2217695;58;2996;-23
2023/09/24 12:48:40;;;;;;;;;;;;;;;;;;2216570;58;2310;-23
2023/09/24 12:51:10;;;;;;;;;;;;;;;;;;2217625;58;2349;-24
2023/09/24 12:53:41;;;;;;;;;;;;;;;;;;2216510;58;2618;-23
2023/09/24 12:56:11;;;;;;;;;;;;;;;;;;2218135;58;2165;-23
2023/09/24 12:58:41;;;;;;;;;;;;;;;;;;2216673;66;2490;-23
2023/09/24 13:01:12;;;;;;;;;;;;;;;;;;2219442;58;2300;-23
2023/09/24 13:03:42;;;;;;;;;;;;;;;;;;2217481;66;3021;-23
2023/09/24 13:06:19;;;;;;;;;;;;;;;;;;2218483;66;2593;-23
2023/09/24 13:08:49;;;;;;;;;;;;;;;;;;2217201;63;2974;-23
2023/09/24 13:11:20;;;;;;;;;;;;;;;;;;2218555;58;3494;-23
2023/09/24 13:13:50;;;;;;;;;;;;;;;;;;2216410;58;2829;-23
2023/09/24 13:16:20;;;;;;;;;;;;;;;;;;2217977;58;2122;-23
2023/09/24 13:18:50;;;;;;;;;;;;;;;;;;2214506;58;2390;-23
2023/09/24 13:21:21;;;;;;;;;;;;;;;;;;2218269;58;2111;-23
2023/09/24 13:23:52;;;;;;;;;;;;;;;;;;2216941;58;3001;-23
2023/09/24 13:26:22;;;;;;;;;;;;;;;;;;2218532;58;3626;-23
2023/09/24 13:28:53;;;;;;;;;;;;;;;;;;2213655;58;2339;-23
2023/09/24 13:31:23;;;;;;;;;;;;;;;;;;2214960;58;2727;-23
2023/09/24 13:33:53;;;;;;;;;;;;;;;;;;2216625;58;3713;-23
2023/09/24 13:36:23;;;;;;;;;;;;;;;;;;2218494;66;3208;-23
2023/09/24 13:38:54;;;;;;;;;;;;;;;;;;2217105;58;3906;-23
2023/09/24 13:41:28;;;;;;;;;;;;;;;;;;2218214;58;2504;-23
2023/09/24 13:43:58;;;;;;;;;;;;;;;;;;2217980;58;3815;-23
2023/09/24 13:46:28;;;;;;;;;;;;;;;;;;2217408;58;2373;-23
2023/09/24 13:48:59;;;;;;;;;;;;;;;;;;2218334;66;3075;-23
2023/09/24 13:51:29;;;;;;;;;;;;;;;;;;2213351;58;2375;-23
2023/09/24 13:54:00;;;;;;;;;;;;;;;;;;2214884;58;2406;-23
2023/09/24 13:56:30;;;;;;;;;;;;;;;;;;2213872;66;3466;-23
2023/09/24 13:59:00;;;;;;;;;;;;;;;;;;2217743;58;2310;-23
2023/09/24 14:01:31;;;;;;;;;;;;;;;;;;2217892;66;3115;-23
2023/09/24 14:04:04;;;;;;;;;;;;;;;;;;2215403;59;2281;-23
2023/09/24 14:06:35;;;;;;;;;;;;;;;;;;2215168;58;2430;-23
2023/09/24 14:12:17;;;;;;;;;;;;;;;;;;2214359;66;3173;-23
2023/09/24 14:14:48;;;;;;;;;;;;;;;;;;2218472;58;2356;-23
2023/09/24 14:17:19;;;;;;;;;;;;;;;;;;2218768;58;2508;-23
2023/09/24 14:19:53;;;;;;;;;;;;;;;;;;2214153;59;2421;-23
2023/09/24 14:22:23;;;;;;;;;;;;;;;;;;2218942;58;2579;-23
2023/09/24 14:24:53;;;;;;;;;;;;;;;;;;2217797;58;2371;-23
2023/09/24 14:27:23;;;;;;;;;;;;;;;;;;2218809;58;3194;-23
2023/09/24 14:29:54;;;;;;;;;;;;;;;;;;2216978;58;3263;-23
2023/09/24 14:32:24;;;;;;;;;;;;;;;;;;2215181;58;2581;-23
2023/09/24 14:34:55;;;;;;;;;;;;;;;;;;2217204;66;2779;-23
2023/09/24 14:37:28;;;;;;;;;;;;;;;;;;2215050;58;3094;-23
2023/09/24 14:39:58;;;;;;;;;;;;;;;;;;2215451;58;2447;-23
2023/09/24 14:42:29;;;;;;;;;;;;;;;;;;2218395;58;2656;-23
2023/09/24 14:45:00;;;;;;;;;;;;;;;;;;2218352;58;2507;-23
2023/09/24 14:47:30;;;;;;;;;;;;;;;;;;2218137;66;3812;-23
2023/09/24 14:50:01;;;;;;;;;;;;;;;;;;2215664;59;2216;-23
2023/09/24 14:52:31;;;;;;;;;;;;;;;;;;2217115;58;2200;-23
2023/09/24 14:55:02;;;;;;;;;;;;;;;;;;2218332;66;2895;-23
2023/09/24 14:57:32;;;;;;;;;;;;;;;;;;2210981;66;2380;-23
2023/09/24 15:00:03;;;;;;;;;;;;;;;;;;2218459;66;2132;-23
2023/09/24 15:02:34;;;;;;;;;;;;;;;;;;2217305;66;3303;-22
2023/09/24 15:05:04;;;;;;;;;;;;;;;;;;2215125;59;2388;-23
2023/09/24 15:07:35;;;;;;;;;;;;;;;;;;2217393;58;2568;-23
2023/09/24 15:10:05;;;;;;;;;;;;;;;;;;2214730;59;2574;-24
2023/09/24 15:12:35;;;;;;;;;;;;;;;;;;2217078;58;2533;-24
2023/09/24 15:15:06;;;;;;;;;;;;;;;;;;2214228;59;3290;-24
2023/09/24 15:17:36;;;;;;;;;;;;;;;;;;2213544;58;2672;-24
2023/09/24 15:20:06;;;;;;;;;;;;;;;;;;2213790;59;2505;-24
2023/09/24 15:22:37;;;;;;;;;;;;;;;;;;2217544;58;2382;-24
2023/09/24 15:25:07;;;;;;;;;;;;;;;;;;2218157;58;2452;-24
2023/09/24 15:27:38;;;;;;;;;;;;;;;;;;2217726;58;2685;-24
2023/09/24 15:30:11;;;;;;;;;;;;;;;;;;2217957;58;2689;-24
2023/09/24 15:32:41;;;;;;;;;;;;;;;;;;2217407;66;2361;-24
2023/09/24 15:35:11;;;;;;;;;;;;;;;;;;2218667;58;2317;-24
2023/09/24 15:37:42;;;;;;;;;;;;;;;;;;2217378;58;1618;-24
2023/09/24 15:40:15;;;;;;;;;;;;;;;;;;2218367;66;3555;-24
2023/09/24 15:42:45;;;;;;;;;;;;;;;;;;2216721;58;3338;-24
2023/09/24 15:45:16;;;;;;;;;;;;;;;;;;2219079;58;2499;-24
2023/09/24 15:47:46;;;;;;;;;;;;;;;;;;2217132;59;3409;-24
2023/09/24 15:50:17;;;;;;;;;;;;;;;;;;2218388;58;2175;-24
2023/09/24 15:52:47;;;;;;;;;;;;;;;;;;2213634;66;1614;-24
2023/09/24 15:55:17;;;;;;;;;;;;;;;;;;2217951;58;2280;-24
2023/09/24 15:57:48;;;;;;;;;;;;;;;;;;2216791;66;3270;-24
2023/09/24 16:00:19;;;;;;;;;;;;;;;;;;2214729;62;2553;-24
2023/09/24 16:02:49;;;;;;;;;;;;;;;;;;2216521;66;2371;-24
2023/09/24 16:05:22;;;;;;;;;;;;;;;;;;2218484;66;2440;-24
2023/09/24 16:07:52;;;;;;;;;;;;;;;;;;2216639;66;3579;-24
2023/09/24 16:10:23;;;;;;;;;;;;;;;;;;2218475;66;3410;-24
2023/09/24 16:12:55;;;;;;;;;;;;;;;;;;2216653;58;2489;-24
2023/09/24 16:15:25;;;;;;;;;;;;;;;;;;2217940;58;3330;-24
2023/09/24 16:17:55;;;;;;;;;;;;;;;;;;2216964;58;2124;-24
2023/09/24 16:20:26;;;;;;;;;;;;;;;;;;2217564;58;2506;-24
2023/09/24 16:22:57;;;;;;;;;;;;;;;;;;2216129;58;2973;-24
2023/09/24 16:25:27;;;;;;;;;;;;;;;;;;2218083;66;2400;-24
2023/09/24 16:27:58;;;;;;;;;;;;;;;;;;2217843;58;1713;-24
2023/09/24 16:30:28;;;;;;;;;;;;;;;;;;2214254;66;2404;-24
2023/09/24 16:32:58;;;;;;;;;;;;;;;;;;2216814;66;3668;-24
2023/09/24 16:35:30;;;;;;;;;;;;;;;;;;2219119;59;1844;-24
2023/09/24 16:38:00;;;;;;;;;;;;;;;;;;2216871;58;2305;-24
2023/09/24 16:40:30;;;;;;;;;;;;;;;;;;2218275;59;1859;-24
2023/09/24 16:43:01;;;;;;;;;;;;;;;;;;2216980;58;2838;-24
2023/09/24 16:45:32;;;;;;;;;;;;;;;;;;2214513;58;2435;-24
2023/09/24 16:48:02;;;;;;;;;;;;;;;;;;2212694;58;2393;-23
2023/09/24 16:50:34;;;;;;;;;;;;;;;;;;2217963;58;2193;-23
2023/09/24 16:53:04;;;;;;;;;;;;;;;;;;2217138;66;2449;-24
2023/09/24 16:55:38;;;;;;;;;;;;;;;;;;2217865;58;2236;-24
2023/09/24 16:58:09;;;;;;;;;;;;;;;;;;2217336;66;2410;-24
2023/09/24 17:00:40;;;;;;;;;;;;;;;;;;2213602;66;3948;-24
2023/09/24 17:03:10;;;;;;;;;;;;;;;;;;2217992;58;1714;-24
2023/09/24 17:05:41;;;;;;;;;;;;;;;;;;2216517;66;2491;-23
2023/09/24 17:08:11;;;;;;;;;;;;;;;;;;2217104;66;3459;-24
2023/09/24 17:10:47;;;;;;;;;;;;;;;;;;2213016;59;2323;-23
2023/09/24 17:13:17;;;;;;;;;;;;;;;;;;2217313;58;2087;-23
2023/09/24 17:15:47;;;;;;;;;;;;;;;;;;2217079;58;2536;-23
2023/09/24 17:18:18;;;;;;;;;;;;;;;;;;2214075;58;1906;-23
2023/09/24 17:20:48;;;;;;;;;;;;;;;;;;2213277;58;2237;-23
2023/09/24 17:23:19;;;;;;;;;;;;;;;;;;2217037;58;2511;-23
2023/09/24 17:25:50;;;;;;;;;;;;;;;;;;2213598;58;2812;-23
2023/09/24 17:28:21;;;;;;;;;;;;;;;;;;2217961;58;2029;-23
2023/09/24 17:30:51;;;;;;;;;;;;;;;;;;2216677;58;2684;-23
2023/09/24 17:33:22;;;;;;;;;;;;;;;;;;2216918;66;2778;-23